Time;durP1;ratioP1;P1;durP2;ratioP2;P2;SDS_P1;SDS_P2;PMS_P1;PMS_P2;Temp;Humidity;BMP_temperature;BMP_pressure;BME280_temperature;BME280_humidity;BME280_pressure;Samples;Min_cycle;Max_cycle;Signal;HPM_P1;HPM_P2
2023/09/04 00:01:45;;;;;;;6.15;4.38;;;;;;;;;;5053444;28;20074;-61
2023/09/04 00:04:11;;;;;;;5.88;4.68;;;;;;;;;;5056073;28;20066;-61
2023/09/04 00:06:37;;;;;;;6.13;5.35;;;;;;;;;;5072583;28;20494;-62
2023/09/04 00:09:04;;;;;;;6.15;5.50;;;;;;;;;;5074026;28;20041;-63
2023/09/04 00:11:30;;;;;;;7.45;5.13;;;;;;;;;;5072986;28;20076;-62
2023/09/04 00:13:56;;;;;;;6.05;4.55;;;;;;;;;;5073244;28;20045;-62
2023/09/04 00:16:22;;;;;;;6.18;5.45;;;;;;;;;;5070946;28;20097;-62
2023/09/04 00:18:48;;;;;;;6.78;4.70;;;;;;;;;;5073308;28;20049;-61
2023/09/04 00:21:15;;;;;;;5.60;4.60;;;;;;;;;;5073290;28;20044;-61
2023/09/04 00:23:41;;;;;;;7.18;5.40;;;;;;;;;;5072955;28;20044;-62
2023/09/04 00:26:07;;;;;;;6.60;4.68;;;;;;;;;;5070638;28;20459;-62
2023/09/04 00:28:33;;;;;;;6.53;5.65;;;;;;;;;;5045132;28;20396;-62
2023/09/04 00:31:00;;;;;;;7.72;4.88;;;;;;;;;;5051708;28;20062;-61
2023/09/04 00:33:26;;;;;;;5.13;4.60;;;;;;;;;;5055193;28;20079;-62
2023/09/04 00:35:52;;;;;;;4.60;4.10;;;;;;;;;;5070851;28;20445;-61
2023/09/04 00:38:18;;;;;;;7.72;5.30;;;;;;;;;;5049856;28;20036;-61
2023/09/04 00:40:44;;;;;;;7.70;4.40;;;;;;;;;;5050584;28;20070;-61
2023/09/04 00:43:10;;;;;;;6.32;4.90;;;;;;;;;;5051961;28;20769;-61
2023/09/04 00:45:36;;;;;;;6.30;4.72;;;;;;;;;;5039390;28;20060;-61
2023/09/04 00:48:03;;;;;;;6.10;4.53;;;;;;;;;;5068163;28;20041;-62
2023/09/04 00:50:30;;;;;;;5.88;4.90;;;;;;;;;;5070166;28;20423;-61
2023/09/04 00:52:57;;;;;;;6.57;5.35;;;;;;;;;;5071759;28;20143;-61
2023/09/04 00:55:24;;;;;;;6.97;4.30;;;;;;;;;;5052597;28;20048;-61
2023/09/04 00:57:50;;;;;;;6.15;4.03;;;;;;;;;;5054481;28;20040;-61
2023/09/04 01:00:20;;;;;;;5.88;4.03;;;;;;;;;;5067201;28;20499;-62
2023/09/04 01:02:46;;;;;;;5.00;4.20;;;;;;;;;;5048187;28;20099;-61
2023/09/04 01:05:12;;;;;;;5.30;4.20;;;;;;;;;;5068758;28;20072;-61
2023/09/04 01:07:40;;;;;;;4.97;4.05;;;;;;;;;;5071889;28;20052;-61
2023/09/04 01:10:07;;;;;;;6.85;4.75;;;;;;;;;;5069051;28;20097;-61
2023/09/04 01:12:40;;;;;;;6.72;4.60;;;;;;;;;;5071800;28;20087;-61
2023/09/04 01:15:07;;;;;;;5.43;4.00;;;;;;;;;;5051946;28;20185;-61
2023/09/04 01:17:33;;;;;;;6.15;4.93;;;;;;;;;;5052365;28;20044;-61
2023/09/04 01:19:59;;;;;;;6.50;5.45;;;;;;;;;;5066391;28;20037;-62
2023/09/04 01:22:26;;;;;;;7.20;5.40;;;;;;;;;;5067187;28;20056;-62
2023/09/04 01:24:52;;;;;;;7.88;5.00;;;;;;;;;;5054035;28;20056;-61
2023/09/04 01:27:27;;;;;;;6.05;5.18;;;;;;;;;;5068088;28;20185;-61
2023/09/04 01:30:02;;;;;;;7.00;5.10;;;;;;;;;;5069446;28;20068;-61
2023/09/04 01:32:33;;;;;;;7.13;5.57;;;;;;;;;;5054731;28;20041;-61
2023/09/04 01:35:01;;;;;;;6.80;5.60;;;;;;;;;;5071535;28;20051;-61
2023/09/04 01:37:27;;;;;;;8.30;6.45;;;;;;;;;;5070863;28;20048;-61
2023/09/04 01:39:54;;;;;;;8.85;6.38;;;;;;;;;;5052170;28;20040;-61
2023/09/04 01:42:20;;;;;;;6.80;5.78;;;;;;;;;;5054065;28;20052;-62
2023/09/04 01:44:46;;;;;;;9.27;6.05;;;;;;;;;;5070653;28;20037;-62
2023/09/04 01:47:12;;;;;;;8.07;6.63;;;;;;;;;;5035568;28;20041;-62
2023/09/04 01:49:39;;;;;;;8.05;6.28;;;;;;;;;;5070593;28;20124;-61
2023/09/04 01:52:05;;;;;;;7.28;5.97;;;;;;;;;;5071316;28;20040;-62
2023/09/04 01:54:31;;;;;;;7.03;5.47;;;;;;;;;;5071127;28;20048;-62
2023/09/04 01:56:57;;;;;;;7.65;5.53;;;;;;;;;;5054423;28;20056;-61
2023/09/04 01:59:23;;;;;;;7.45;5.65;;;;;;;;;;5068902;28;20123;-62
2023/09/04 02:01:49;;;;;;;6.72;5.80;;;;;;;;;;5065177;28;20049;-62
2023/09/04 02:04:15;;;;;;;7.28;5.88;;;;;;;;;;5071602;28;20475;-61
2023/09/04 02:06:41;;;;;;;6.22;5.40;;;;;;;;;;5053928;28;20408;-62
2023/09/04 02:09:07;;;;;;;6.68;5.10;;;;;;;;;;5071248;28;20044;-62
2023/09/04 02:11:33;;;;;;;9.45;6.18;;;;;;;;;;5070626;28;20048;-61
2023/09/04 02:13:59;;;;;;;7.30;6.07;;;;;;;;;;5070726;28;20040;-62
2023/09/04 02:16:27;;;;;;;8.02;5.88;;;;;;;;;;5070209;28;20055;-61
2023/09/04 02:18:55;;;;;;;7.15;5.47;;;;;;;;;;5053416;28;20044;-61
2023/09/04 02:21:21;;;;;;;7.75;6.22;;;;;;;;;;5069792;28;20044;-61
2023/09/04 02:23:47;;;;;;;7.38;4.95;;;;;;;;;;5071656;28;20059;-62
2023/09/04 02:26:13;;;;;;;7.03;4.93;;;;;;;;;;5036235;28;20091;-61
2023/09/04 02:28:40;;;;;;;6.65;5.80;;;;;;;;;;5070150;28;20044;-62
2023/09/04 02:31:06;;;;;;;6.15;5.28;;;;;;;;;;5069511;28;20090;-62
2023/09/04 02:33:33;;;;;;;7.53;6.35;;;;;;;;;;5070277;28;20497;-62
2023/09/04 02:35:59;;;;;;;7.00;5.57;;;;;;;;;;5070105;28;20037;-62
2023/09/04 02:38:25;;;;;;;6.85;5.43;;;;;;;;;;5051665;28;20048;-61
2023/09/04 02:40:51;;;;;;;8.00;5.75;;;;;;;;;;5066939;28;20109;-61
2023/09/04 02:43:17;;;;;;;5.15;4.65;;;;;;;;;;5067985;28;20044;-61
2023/09/04 02:45:45;;;;;;;9.23;5.68;;;;;;;;;;5071117;28;20052;-61
2023/09/04 02:48:11;;;;;;;8.88;4.88;;;;;;;;;;5070131;28;20044;-61
2023/09/04 02:50:37;;;;;;;7.18;5.57;;;;;;;;;;5051606;28;20044;-61
2023/09/04 02:53:03;;;;;;;5.90;4.80;;;;;;;;;;5041122;28;20045;-62
2023/09/04 02:55:29;;;;;;;6.72;4.88;;;;;;;;;;5066005;28;20125;-61
2023/09/04 02:57:55;;;;;;;6.78;5.28;;;;;;;;;;5068198;28;20091;-61
2023/09/04 03:00:22;;;;;;;6.80;4.53;;;;;;;;;;5050333;28;20040;-61
2023/09/04 03:02:50;;;;;;;8.25;6.07;;;;;;;;;;5069361;28;20138;-61
2023/09/04 03:05:16;;;;;;;9.15;4.97;;;;;;;;;;5030849;28;20479;-61
2023/09/04 03:07:42;;;;;;;8.02;6.30;;;;;;;;;;5052238;28;20133;-61
2023/09/04 03:10:09;;;;;;;6.93;5.93;;;;;;;;;;5051666;28;20098;-62
2023/09/04 03:12:35;;;;;;;6.32;5.10;;;;;;;;;;5070948;28;20056;-61
2023/09/04 03:15:06;;;;;;;7.47;5.80;;;;;;;;;;5068903;28;20044;-62
2023/09/04 03:17:33;;;;;;;8.18;5.95;;;;;;;;;;5066522;28;20036;-61
2023/09/04 03:19:59;;;;;;;9.02;5.70;;;;;;;;;;5069523;28;20055;-61
2023/09/04 03:22:26;;;;;;;6.50;5.53;;;;;;;;;;5069549;28;20045;-61
2023/09/04 03:24:52;;;;;;;8.98;5.60;;;;;;;;;;5025861;28;20393;-61
2023/09/04 03:27:18;;;;;;;11.00;5.53;;;;;;;;;;5068352;28;20116;-61
2023/09/04 03:29:45;;;;;;;8.13;6.25;;;;;;;;;;5050270;28;20048;-61
2023/09/04 03:32:11;;;;;;;11.30;7.85;;;;;;;;;;5052776;28;20041;-61
2023/09/04 03:34:37;;;;;;;8.13;5.97;;;;;;;;;;5069526;28;20429;-61
2023/09/04 03:37:03;;;;;;;7.18;5.80;;;;;;;;;;5046251;28;20441;-62
2023/09/04 03:39:29;;;;;;;8.52;6.18;;;;;;;;;;5070052;28;20040;-62
2023/09/04 03:41:55;;;;;;;7.85;6.00;;;;;;;;;;5069461;28;20056;-61
2023/09/04 03:44:21;;;;;;;7.82;6.20;;;;;;;;;;5066287;28;20105;-61
2023/09/04 03:46:48;;;;;;;9.60;6.10;;;;;;;;;;5070011;28;20055;-61
2023/09/04 03:49:14;;;;;;;8.23;5.95;;;;;;;;;;5069678;28;20050;-61
2023/09/04 03:51:40;;;;;;;6.72;5.97;;;;;;;;;;5074278;28;20115;-61
2023/09/04 03:54:06;;;;;;;9.75;6.07;;;;;;;;;;5072688;28;20059;-62
2023/09/04 03:56:32;;;;;;;8.05;5.95;;;;;;;;;;5056499;28;20515;-61
2023/09/04 03:58:58;;;;;;;9.15;6.85;;;;;;;;;;5056433;28;20045;-61
2023/09/04 04:01:24;;;;;;;10.38;7.65;;;;;;;;;;5055798;28;20396;-61
2023/09/04 04:03:51;;;;;;;12.73;7.93;;;;;;;;;;5049083;28;20044;-62
2023/09/04 04:06:17;;;;;;;10.02;7.10;;;;;;;;;;5056421;28;20044;-61
2023/09/04 04:08:45;;;;;;;9.38;7.22;;;;;;;;;;5072012;28;20060;-61
2023/09/04 04:11:11;;;;;;;9.13;6.35;;;;;;;;;;5072163;28;20040;-61
2023/09/04 04:13:37;;;;;;;11.45;7.70;;;;;;;;;;5072982;28;20040;-61
2023/09/04 04:16:03;;;;;;;11.95;7.82;;;;;;;;;;5072742;28;20048;-63
2023/09/04 04:18:29;;;;;;;9.52;7.45;;;;;;;;;;5054214;28;20048;-61
2023/09/04 04:20:56;;;;;;;9.63;6.72;;;;;;;;;;5073538;28;20115;-61
2023/09/04 04:23:22;;;;;;;10.68;7.68;;;;;;;;;;5072839;28;20871;-61
2023/09/04 04:25:51;;;;;;;10.02;6.95;;;;;;;;;;5072354;28;20495;-62
2023/09/04 04:28:19;;;;;;;12.00;7.57;;;;;;;;;;5073379;28;20097;-61
2023/09/04 04:30:45;;;;;;;10.68;7.35;;;;;;;;;;5071860;28;21959;-61
2023/09/04 04:33:12;;;;;;;8.57;6.53;;;;;;;;;;5050172;28;20044;-61
2023/09/04 04:35:39;;;;;;;12.10;8.85;;;;;;;;;;5046554;28;20455;-61
2023/09/04 04:38:05;;;;;;;10.00;8.00;;;;;;;;;;5072316;28;20048;-62
2023/09/04 04:40:31;;;;;;;8.43;6.85;;;;;;;;;;5072640;28;20040;-61
2023/09/04 04:42:58;;;;;;;10.18;7.65;;;;;;;;;;5070417;28;20037;-61
2023/09/04 04:45:24;;;;;;;8.77;6.75;;;;;;;;;;5054762;28;20044;-61
2023/09/04 04:47:50;;;;;;;10.32;7.95;;;;;;;;;;5072056;28;20122;-60
2023/09/04 04:50:16;;;;;;;11.40;8.05;;;;;;;;;;5072786;28;20072;-61
2023/09/04 04:52:42;;;;;;;11.85;8.38;;;;;;;;;;5066808;28;20681;-62
2023/09/04 04:55:11;;;;;;;11.80;8.30;;;;;;;;;;5072901;28;20044;-61
2023/09/04 04:57:38;;;;;;;9.48;7.53;;;;;;;;;;5038221;28;20048;-61
2023/09/04 05:00:06;;;;;;;12.27;8.63;;;;;;;;;;5070938;28;20047;-61
2023/09/04 05:02:33;;;;;;;12.55;8.02;;;;;;;;;;5052600;28;20137;-61
2023/09/04 05:04:59;;;;;;;14.60;8.32;;;;;;;;;;5072317;28;20045;-61
2023/09/04 05:07:26;;;;;;;12.88;8.13;;;;;;;;;;5069261;28;20056;-61
2023/09/04 05:09:53;;;;;;;11.90;8.18;;;;;;;;;;5068800;28;20417;-61
2023/09/04 05:12:19;;;;;;;15.93;10.48;;;;;;;;;;5070231;28;20091;-61
2023/09/04 05:14:45;;;;;;;14.50;10.38;;;;;;;;;;5072041;28;20154;-61
2023/09/04 05:17:11;;;;;;;15.50;9.80;;;;;;;;;;5071495;28;20044;-61
2023/09/04 05:19:37;;;;;;;13.38;10.68;;;;;;;;;;5072179;28;20036;-61
2023/09/04 05:22:03;;;;;;;21.55;11.88;;;;;;;;;;5070304;28;20047;-63
2023/09/04 05:24:29;;;;;;;16.00;12.18;;;;;;;;;;5050527;28;20043;-61
2023/09/04 05:26:55;;;;;;;15.13;11.32;;;;;;;;;;5057364;28;20453;-61
2023/09/04 05:29:21;;;;;;;16.30;12.15;;;;;;;;;;5064352;28;20409;-61
2023/09/04 05:31:51;;;;;;;15.38;11.45;;;;;;;;;;5048559;28;20613;-61
2023/09/04 05:34:17;;;;;;;15.27;11.33;;;;;;;;;;5052075;28;20479;-61
2023/09/04 05:36:43;;;;;;;16.23;11.20;;;;;;;;;;5053250;28;20495;-61
2023/09/04 05:39:12;;;;;;;14.95;11.70;;;;;;;;;;5071933;28;20055;-62
2023/09/04 05:41:38;;;;;;;15.82;10.95;;;;;;;;;;5070016;28;20044;-62
2023/09/04 05:44:05;;;;;;;16.38;11.13;;;;;;;;;;5071019;28;20076;-61
2023/09/04 05:46:31;;;;;;;17.88;11.15;;;;;;;;;;5069285;28;20492;-61
2023/09/04 05:48:58;;;;;;;14.05;10.52;;;;;;;;;;5067709;28;20080;-61
2023/09/04 05:51:24;;;;;;;14.27;9.73;;;;;;;;;;5028975;28;20374;-61
2023/09/04 05:53:50;;;;;;;14.20;10.05;;;;;;;;;;5071584;28;20105;-61
2023/09/04 05:56:17;;;;;;;15.70;10.80;;;;;;;;;;5071660;28;20460;-61
2023/09/04 05:58:44;;;;;;;12.52;9.73;;;;;;;;;;5050820;28;21569;-62
2023/09/04 06:01:11;;;;;;;17.65;10.65;;;;;;;;;;5069791;28;20040;-61
2023/09/04 06:03:37;;;;;;;11.30;8.90;;;;;;;;;;5070707;28;20260;-61
2023/09/04 06:06:04;;;;;;;14.63;10.80;;;;;;;;;;5071948;28;20113;-60
2023/09/04 06:08:30;;;;;;;12.25;9.15;;;;;;;;;;5070719;28;20523;-60
2023/09/04 06:10:57;;;;;;;12.65;9.43;;;;;;;;;;5058937;28;20048;-61
2023/09/04 06:13:23;;;;;;;13.00;10.40;;;;;;;;;;5050779;28;20772;-60
2023/09/04 06:15:52;;;;;;;15.10;10.13;;;;;;;;;;5070400;28;20500;-60
2023/09/04 06:18:21;;;;;;;12.32;10.32;;;;;;;;;;5066085;28;20505;-60
2023/09/04 06:20:47;;;;;;;14.75;10.77;;;;;;;;;;5070342;28;20044;-60
2023/09/04 06:23:14;;;;;;;20.98;11.15;;;;;;;;;;5069909;28;20044;-60
2023/09/04 06:25:42;;;;;;;15.77;10.70;;;;;;;;;;5071083;28;20408;-60
2023/09/04 06:28:09;;;;;;;17.25;11.05;;;;;;;;;;5069495;28;20060;-60
2023/09/04 06:30:35;;;;;;;15.73;9.85;;;;;;;;;;5070639;28;20454;-60
2023/09/04 06:33:02;;;;;;;13.63;10.35;;;;;;;;;;5070100;28;20060;-60
2023/09/04 06:35:29;;;;;;;12.30;9.73;;;;;;;;;;5070728;28;20048;-60
2023/09/04 06:37:55;;;;;;;12.45;10.23;;;;;;;;;;5069177;28;20135;-60
2023/09/04 06:40:21;;;;;;;13.30;10.30;;;;;;;;;;5069036;28;20045;-60
2023/09/04 06:42:47;;;;;;;13.82;9.50;;;;;;;;;;5071067;28;20052;-60
2023/09/04 06:45:13;;;;;;;11.30;8.55;;;;;;;;;;5036254;28;20048;-60
2023/09/04 06:47:40;;;;;;;12.70;9.20;;;;;;;;;;5071750;28;20067;-60
2023/09/04 06:50:06;;;;;;;10.77;8.57;;;;;;;;;;5051453;28;20044;-61
2023/09/04 06:52:32;;;;;;;11.60;8.55;;;;;;;;;;5055470;28;20044;-60
2023/09/04 06:54:59;;;;;;;11.85;8.32;;;;;;;;;;5064093;28;20047;-60
2023/09/04 06:57:25;;;;;;;9.15;7.97;;;;;;;;;;5049828;28;20087;-60
2023/09/04 06:59:52;;;;;;;12.45;7.97;;;;;;;;;;5052644;28;20098;-61
2023/09/04 07:02:19;;;;;;;9.57;8.02;;;;;;;;;;5069889;28;20052;-61
2023/09/04 07:04:45;;;;;;;10.27;7.47;;;;;;;;;;5069357;28;20131;-61
2023/09/04 07:07:11;;;;;;;9.52;7.28;;;;;;;;;;5070259;28;20057;-61
2023/09/04 07:09:38;;;;;;;7.90;6.93;;;;;;;;;;5070279;28;20060;-60
2023/09/04 07:12:04;;;;;;;8.13;6.85;;;;;;;;;;5069206;28;20052;-61
2023/09/04 07:14:31;;;;;;;8.10;7.30;;;;;;;;;;5042829;28;20464;-61
2023/09/04 07:16:57;;;;;;;11.75;6.70;;;;;;;;;;5071367;28;20381;-60
2023/09/04 07:19:23;;;;;;;7.63;5.85;;;18.40;99.90;;;;;;5070755;28;20041;-61
2023/09/04 07:21:49;;;;;;;9.30;7.00;;;18.60;99.90;;;;;;5067143;28;20555;-60
2023/09/04 07:24:15;;;;;;;7.97;6.13;;;;;;;;;;5059920;28;20623;-61
2023/09/04 07:26:41;;;;;;;7.53;6.13;;;;;;;;;;5054617;28;20052;-60
2023/09/04 07:29:07;;;;;;;7.00;5.32;;;;;;;;;;5073188;28;20076;-61
2023/09/04 07:31:33;;;;;;;8.88;5.60;;;;;;;;;;5054947;28;20045;-60
2023/09/04 07:33:59;;;;;;;7.15;5.32;;;;;;;;;;5073444;28;20072;-60
2023/09/04 07:36:25;;;;;;;8.20;5.55;;;;;;;;;;5071032;28;20062;-61
2023/09/04 07:38:51;;;;;;;6.15;5.47;;;19.80;99.90;;;;;;5073375;28;20044;-60
2023/09/04 07:41:17;;;;;;;6.22;4.50;;;;;;;;;;5072954;28;20040;-61
2023/09/04 07:43:43;;;;;;;5.78;4.85;;;;;;;;;;5073090;28;20064;-61
2023/09/04 07:46:08;;;;;;;7.32;4.97;;;20.10;99.90;;;;;;5054347;28;20058;-60
2023/09/04 07:48:34;;;;;;;7.18;4.72;;;20.10;99.90;;;;;;5064350;28;20123;-60
2023/09/04 07:51:03;;;;;;;6.20;4.47;;;20.20;99.90;;;;;;5073144;28;20037;-61
2023/09/04 07:53:28;;;;;;;6.85;4.68;;;19.90;99.90;;;;;;5056151;28;20131;-60
2023/09/04 07:55:54;;;;;;;5.38;4.68;;;;;;;;;;5074041;28;20123;-61
2023/09/04 07:58:20;;;;;;;7.00;4.57;;;20.10;99.90;;;;;;5068641;28;20060;-61
2023/09/04 08:00:50;;;;;;;6.15;4.15;;;20.30;99.90;;;;;;5069198;28;20040;-61
2023/09/04 08:03:16;;;;;;;10.25;4.70;;;;;;;;;;5073723;28;20507;-61
2023/09/04 08:05:42;;;;;;;6.05;4.15;;;20.30;99.90;;;;;;5073984;28;20048;-68
2023/09/04 08:08:11;;;;;;;6.25;4.43;;;20.50;99.90;;;;;;5069969;28;20450;-69
2023/09/04 08:10:43;;;;;;;6.50;3.80;;;20.60;99.90;;;;;;5071898;28;20044;-68
2023/09/04 08:13:13;;;;;;;7.13;4.25;;;20.60;99.90;;;;;;5055006;28;20072;-65
2023/09/04 08:15:39;;;;;;;9.13;4.78;;;20.70;99.90;;;;;;5054356;28;20120;-73
2023/09/04 08:18:06;;;;;;;6.82;3.95;;;20.50;99.90;;;;;;5051061;28;20049;-73
2023/09/04 08:20:33;;;;;;;5.68;3.92;;;20.90;99.90;;;;;;5071058;28;20498;-65
2023/09/04 08:22:59;;;;;;;4.07;3.50;;;;;;;;;;5055970;28;20040;-66
2023/09/04 08:25:25;;;;;;;5.35;3.38;;;;;;;;;;5071649;28;20052;-64
2023/09/04 08:27:51;;;;;;;5.97;3.20;;;21.20;99.90;;;;;;5071622;28;20040;-64
2023/09/04 08:30:17;;;;;;;6.03;3.40;;;;;;;;;;5072099;28;20033;-61
2023/09/04 08:32:44;;;;;;;5.28;3.40;;;21.40;99.90;;;;;;5073315;28;20254;-61
2023/09/04 08:35:09;;;;;;;5.65;3.38;;;21.30;99.90;;;;;;5073172;28;20044;-61
2023/09/04 08:37:35;;;;;;;7.80;3.78;;;;;;;;;;5072942;28;20052;-59
2023/09/04 08:40:02;;;;;;;4.18;2.85;;;21.40;99.90;;;;;;5070948;28;20101;-61
2023/09/04 08:42:28;;;;;;;4.65;3.30;;;21.50;99.90;;;;;;5054985;28;20053;-66
2023/09/04 08:44:56;;;;;;;4.53;2.70;;;21.40;99.90;;;;;;5070272;28;20048;-61
2023/09/04 08:47:23;;;;;;;4.22;2.90;;;21.70;99.90;;;;;;5071589;28;20120;-58
2023/09/04 08:49:49;;;;;;;4.97;2.83;;;21.70;99.90;;;;;;5055621;28;20158;-59
2023/09/04 08:52:15;;;;;;;4.25;2.63;;;21.90;99.90;;;;;;5072432;28;20455;-59
2023/09/04 08:54:42;;;;;;;6.57;2.38;;;22.20;99.90;;;;;;5073186;28;20064;-59
2023/09/04 08:57:08;;;;;;;3.28;2.40;;;22.20;99.90;;;;;;5037429;28;20044;-58
2023/09/04 08:59:34;;;;;;;3.38;2.20;;;22.60;99.90;;;;;;5038883;28;20049;-59
2023/09/04 09:02:04;;;;;;;4.45;2.50;;;22.30;99.90;;;;;;5034842;28;20063;-61
2023/09/04 09:04:31;;;;;;;4.22;2.22;;;22.40;99.90;;;;;;5035767;28;20044;-59
2023/09/04 09:06:57;;;;;;;3.88;2.60;;;22.60;99.90;;;;;;5072979;28;20064;-59
2023/09/04 09:09:24;;;;;;;4.90;2.58;;;22.70;99.90;;;;;;5035298;28;20058;-60
2023/09/04 09:11:53;;;;;;;6.68;2.53;;;22.60;99.90;;;;;;5054326;28;20132;-60
2023/09/04 09:14:20;;;;;;;4.93;2.72;;;23.00;99.90;;;;;;5054122;28;20127;-60
2023/09/04 09:16:46;;;;;;;3.50;2.10;;;22.80;99.90;;;;;;5071157;28;20051;-60
2023/09/04 09:19:13;;;;;;;5.40;2.30;;;22.80;99.90;;;;;;5071878;28;20037;-59
2023/09/04 09:21:39;;;;;;;4.25;2.47;;;23.20;99.90;;;;;;5072901;28;20048;-60
2023/09/04 09:24:15;;;;;;;3.92;1.88;;;22.90;99.90;;;;;;5054586;28;20386;-60
2023/09/04 09:26:49;;;;;;;3.80;1.98;;;22.90;99.90;;;;;;5053397;28;20056;-60
2023/09/04 09:29:17;;;;;;;13.27;3.08;;;23.10;99.90;;;;;;5054704;28;20075;-59
2023/09/04 09:31:45;;;;;;;5.53;2.28;;;23.10;99.90;;;;;;5054336;28;20044;-60
2023/09/04 09:34:11;;;;;;;7.28;2.42;;;23.50;99.90;;;;;;5071672;28;20109;-60
2023/09/04 09:36:37;;;;;;;4.38;2.45;;;23.40;99.90;;;;;;5072166;28;20044;-60
2023/09/04 09:39:04;;;;;;;3.63;2.10;;;23.00;99.90;;;;;;5071643;28;20048;-63
2023/09/04 09:41:30;;;;;;;4.07;2.33;;;23.30;99.90;;;;;;5036584;28;20131;-60
2023/09/04 09:43:58;;;;;;;5.68;2.08;;;23.40;99.90;;;;;;5033857;28;20127;-60
2023/09/04 09:46:24;;;;;;;4.15;2.40;;;23.30;99.90;;;;;;5037062;28;20101;-60
2023/09/04 09:48:50;;;;;;;3.55;2.60;;;23.40;99.90;;;;;;5069903;28;20045;-60
2023/09/04 09:51:16;;;;;;;3.63;1.83;;;23.20;99.90;;;;;;5037013;28;20071;-60
2023/09/04 09:53:48;;;;;;;3.90;1.98;;;23.50;99.90;;;;;;5069614;28;20072;-61
2023/09/04 09:56:15;;;;;;;3.10;1.77;;;23.40;99.90;;;;;;5053324;28;20044;-61
2023/09/04 09:58:45;;;;;;;4.88;1.95;;;23.50;99.90;;;;;;5051283;28;20048;-63
2023/09/04 10:01:12;;;;;;;4.03;1.88;;;23.50;99.90;;;;;;5035657;28;20047;-61
2023/09/04 10:03:38;;;;;;;4.40;1.65;;;23.80;99.90;;;;;;5054328;28;20111;-63
2023/09/04 10:06:08;;;;;;;5.20;2.13;;;23.50;99.90;;;;;;5033630;28;20044;-63
2023/09/04 10:08:40;;;;;;;3.65;2.13;;;23.80;99.90;;;;;;5038672;28;20115;-62
2023/09/04 10:11:10;;;;;;;5.45;2.33;;;23.70;99.90;;;;;;5060939;28;20048;-62
2023/09/04 10:13:43;;;;;;;3.70;2.17;;;24.00;99.90;;;;;;5042318;28;20520;-64
2023/09/04 10:16:15;;;;;;;7.03;2.75;;;24.10;99.90;;;;;;5042191;28;20048;-64
2023/09/04 10:18:46;;;;;;;6.15;2.40;;;24.20;99.90;;;;;;5063001;28;20496;-64
2023/09/04 10:21:16;;;;;;;3.03;2.00;;;23.70;99.90;;;;;;5064657;28;20128;-63
2023/09/04 10:23:49;;;;;;;3.35;1.83;;;24.00;99.90;;;;;;5050176;28;20055;-63
2023/09/04 10:26:35;;;;;;;2.92;2.00;;;24.10;99.90;;;;;;5054206;28;20052;-63
2023/09/04 10:29:10;;;;;;;4.50;2.17;;;23.60;99.90;;;;;;5071787;28;20052;-63
2023/09/04 10:31:37;;;;;;;4.60;1.80;;;23.80;99.90;;;;;;5066404;28;20802;-62
2023/09/04 10:34:03;;;;;;;5.60;2.10;;;24.00;99.90;;;;;;5035062;28;20519;-61
2023/09/04 10:36:30;;;;;;;5.22;1.98;;;24.00;99.90;;;;;;5053838;28;20040;-61
2023/09/04 10:39:01;;;;;;;4.03;1.70;;;24.00;99.90;;;;;;5053980;28;20044;-62
2023/09/04 10:41:33;;;;;;;3.10;1.70;;;23.90;99.90;;;;;;5052838;28;20113;-63
2023/09/04 10:43:59;;;;;;;4.28;1.90;;;24.10;99.90;;;;;;5064917;28;20045;-59
2023/09/04 10:46:25;;;;;;;5.53;1.90;;;24.30;99.90;;;;;;5069663;28;20053;-61
2023/09/04 10:48:52;;;;;;;3.97;2.30;;;24.50;99.90;;;;;;5051516;28;20115;-60
2023/09/04 10:51:35;;;;;;;3.30;1.50;;;24.40;99.90;;;;;;5070201;28;20133;-66
2023/09/04 10:54:24;;;;;;;3.15;1.65;;;24.60;99.90;;;;;;5035939;28;20052;-62
2023/09/04 10:56:58;;;;;;;2.90;1.63;;;24.70;99.90;;;;;;5051963;28;20101;-66
2023/09/04 10:59:25;;;;;;;5.68;1.67;;;24.60;99.90;;;;;;5037179;28;20056;-62
2023/09/04 11:01:51;;;;;;;4.22;1.83;;;24.70;99.90;;;;;;5072236;28;20485;-61
2023/09/04 11:04:35;;;;;;;3.47;1.60;;;24.80;99.90;;;;;;5037197;28;20106;-60
2023/09/04 11:07:37;;;;;;;4.05;1.60;;;24.80;99.90;;;;;;5025222;28;20054;-60
2023/09/04 11:10:06;;;;;;;2.63;1.52;;;24.70;99.90;;;;;;5016717;28;20053;-60
2023/09/04 11:12:37;;;;;;;2.80;1.58;;;25.00;99.90;;;;;;5034922;28;20052;-61
2023/09/04 11:15:15;;;;;;;2.97;1.17;;;24.90;99.90;;;;;;5033962;28;20088;-60
2023/09/04 11:17:45;;;;;;;2.58;1.33;;;25.30;99.90;;;;;;5017301;28;20045;-61
2023/09/04 11:20:14;;;;;;;2.70;1.45;;;25.10;99.90;;;;;;5034136;28;20041;-58
2023/09/04 11:22:47;;;;;;;3.10;1.83;;;25.10;99.90;;;;;;5032864;28;20045;-59
2023/09/04 11:25:12;;;;;;;2.53;1.20;;;25.30;99.90;;;;;;5016932;28;20049;-59
2023/09/04 11:27:38;;;;;;;3.90;1.70;;;25.10;99.90;;;;;;5035241;28;20073;-59
2023/09/04 11:30:04;;;;;;;3.13;1.40;;;25.00;99.90;;;;;;5032074;28;20088;-61
2023/09/04 11:32:36;;;;;;;2.50;1.30;;;25.00;99.90;;;;;;5024732;28;20050;-58
2023/09/04 11:35:02;;;;;;;3.58;1.55;;;25.00;99.90;;;;;;5021726;28;20095;-60
2023/09/04 11:37:32;;;;;;;3.22;1.38;;;25.00;99.90;;;;;;5014491;28;20048;-60
2023/09/04 11:40:01;;;;;;;2.65;1.38;;;25.10;99.90;;;;;;5033356;28;20088;-59
2023/09/04 11:42:27;;;;;;;5.00;1.73;;;25.00;99.90;;;;;;5017291;28;20060;-59
2023/09/04 11:44:54;;;;;;;4.28;1.90;;;25.00;99.90;;;;;;5027239;28;20053;-60
2023/09/04 11:47:21;;;;;;;3.33;1.70;;;24.90;99.90;;;;;;5027318;28;20156;-60
2023/09/04 11:49:49;;;;;;;2.88;1.52;;;25.00;99.90;;;;;;5010939;28;20091;-60
2023/09/04 11:52:17;;;;;;;2.83;2.00;;;24.70;99.90;;;;;;5032942;28;20041;-59
2023/09/04 11:54:43;;;;;;;2.70;1.60;;;24.80;99.90;;;;;;5013632;28;20172;-60
2023/09/04 11:57:10;;;;;;;4.75;1.67;;;24.70;99.90;;;;;;5020205;28;20124;-59
2023/09/04 11:59:37;;;;;;;2.33;1.35;;;24.50;99.90;;;;;;5024787;28;20084;-60
2023/09/04 12:02:05;;;;;;;2.95;1.83;;;24.80;99.90;;;;;;5024298;28;20077;-59
2023/09/04 12:04:32;;;;;;;4.13;1.70;;;24.90;99.90;;;;;;5028570;28;20486;-61
2023/09/04 12:07:07;;;;;;;5.03;1.90;;;25.00;99.90;;;;;;5030312;28;20091;-60
2023/09/04 12:09:36;;;;;;;3.20;1.83;;;25.00;99.90;;;;;;5028965;28;20121;-60
2023/09/04 12:12:03;;;;;;;4.93;1.88;;;;;;;;;;5028281;28;20050;-60
2023/09/04 12:14:29;;;;;;;5.68;1.73;;;;;;;;;;5028491;28;20053;-60
2023/09/04 12:16:55;;;;;;;2.28;1.42;;;;;;;;;;5029252;28;20102;-60
2023/09/04 12:19:23;;;;;;;2.40;1.50;;;24.90;99.90;;;;;;5032168;28;20049;-59
2023/09/04 12:21:49;;;;;;;3.03;1.60;;;25.20;99.90;;;;;;5026930;28;20240;-60
2023/09/04 12:24:16;;;;;;;2.60;1.52;;;25.30;99.90;;;;;;5030147;28;20135;-60
2023/09/04 12:26:46;;;;;;;3.35;1.52;;;25.40;99.90;;;;;;5002529;28;20050;-60
2023/09/04 12:29:13;;;;;;;2.90;1.60;;;;;;;;;;5021046;28;20121;-60
2023/09/04 12:31:40;;;;;;;3.28;2.08;;;25.20;99.90;;;;;;5004854;28;20034;-60
2023/09/04 12:34:06;;;;;;;4.28;2.03;;;;;;;;;;5005594;28;20136;-60
2023/09/04 12:36:32;;;;;;;3.63;1.80;;;25.30;99.90;;;;;;5019658;28;20053;-60
2023/09/04 12:38:59;;;;;;;2.38;1.33;;;25.80;99.90;;;;;;5026030;28;20117;-60
2023/09/04 12:41:25;;;;;;;3.80;1.83;;;25.60;99.90;;;;;;5023631;28;20056;-60
2023/09/04 12:43:51;;;;;;;4.22;2.22;;;25.50;99.90;;;;;;5025693;28;20034;-61
2023/09/04 12:46:17;;;;;;;4.47;1.80;;;25.40;99.90;;;;;;5007355;28;20048;-60
2023/09/04 12:48:43;;;;;;;3.72;1.90;;;;;;;;;;5023358;28;20092;-60
2023/09/04 12:51:09;;;;;;;4.78;2.05;;;;;;;;;;5000317;28;20042;-59
2023/09/04 12:53:35;;;;;;;3.95;1.50;;;25.70;99.90;;;;;;5029696;28;20049;-59
2023/09/04 12:56:03;;;;;;;5.15;1.92;;;25.80;99.90;;;;;;5032381;28;20188;-59
2023/09/04 12:58:29;;;;;;;3.75;2.20;;;25.90;99.90;;;;;;5025637;28;20037;-59
2023/09/04 13:00:55;;;;;;;2.63;1.60;;;26.00;99.90;;;;;;5029896;28;20469;-58
2023/09/04 13:03:21;;;;;;;3.50;1.83;;;25.80;99.90;;;;;;5031217;28;20045;-59
2023/09/04 13:05:47;;;;;;;2.97;1.60;;;;;;;;;;5014466;28;20049;-58
2023/09/04 13:08:13;;;;;;;3.17;1.70;;;;;;;;;;5003727;28;20116;-57
2023/09/04 13:10:39;;;;;;;3.25;1.70;;;25.50;99.90;;;;;;5013549;28;20524;-57
2023/09/04 13:13:05;;;;;;;4.32;1.95;;;25.50;99.90;;;;;;5013403;28;20068;-60
2023/09/04 13:15:31;;;;;;;3.47;1.75;;;;;;;;;;5031619;28;20045;-60
2023/09/04 13:17:57;;;;;;;2.50;1.70;;;25.50;99.90;;;;;;5030675;28;20075;-60
2023/09/04 13:20:23;;;;;;;2.60;1.75;;;25.80;99.90;;;;;;5032813;28;20072;-59
2023/09/04 13:22:50;;;;;;;3.53;1.70;;;25.80;99.90;;;;;;5030084;28;20045;-61
2023/09/04 13:25:16;;;;;;;3.50;1.85;;;25.80;99.90;;;;;;5031622;28;20049;-60
2023/09/04 13:27:41;;;;;;;3.42;1.90;;;25.70;99.90;;;;;;5032648;28;20112;-61
2023/09/04 13:30:11;;;;;;;4.25;1.83;;;25.80;99.90;;;;;;5030096;28;20400;-61
2023/09/04 13:32:37;;;;;;;3.42;1.95;;;26.20;99.90;;;;;;5031469;28;20396;-60
2023/09/04 13:35:03;;;;;;;4.85;1.95;;;;;;;;;;5030748;28;20033;-59
2023/09/04 13:37:32;;;;;;;3.20;2.10;;;26.30;99.90;;;;;;5028426;28;20508;-59
2023/09/04 13:39:58;;;;;;;2.75;1.50;;;26.20;99.90;;;;;;5027429;28;20057;-59
2023/09/04 13:42:23;;;;;;;3.28;1.73;;;26.20;99.90;;;;;;5026459;28;20048;-59
2023/09/04 13:44:50;;;;;;;3.42;1.60;;;26.20;99.90;;;;;;5030849;28;20528;-59
2023/09/04 13:47:22;;;;;;;2.95;1.58;;;26.20;99.90;;;;;;5031358;28;20057;-59
2023/09/04 13:49:48;;;;;;;5.43;2.00;;;;;;;;;;5031681;28;20057;-60